LTBA/IST METAR and TAF weather

Enter ICAO airport designator
Station Type Date Time Source
LTBA METAR 2022/01/18 06:20 UTC NOAA

LTBA 180620Z 36019G31KT 9999 SCT025 BKN080 04/M01 Q1020 RERA NOSIG


Station Type Date Time Source
LTBA Decoded METAR 2022/01/18 06:20 UTC NOAA

Istanbul / Ataturk, Turkey (LTBA) 40-58N 028-49E 37M
Jan 18, 2022 - 01:20 AM EST / 2022.01.18 0620 UTC
Wind: from the N (360 degrees) at 22 MPH (19 KT) gusting to 36 MPH (31 KT):0
Visibility: greater than 7 mile(s):0
Sky conditions: mostly cloudy
Temperature: 39 F (4 C)
Dew Point: 30 F (-1 C)
Relative Humidity: 69%
Pressure (altimeter): 30.12 in. Hg (1020 hPa)
ob: LTBA 180620Z 36019G31KT 9999 SCT025 BKN080 04/M01 Q1020 RERA NOSIG
cycle: 6

Station Type Date Time Source
LTBA TAF 2022/01/18 06:03 UTC NOAA

TAF LTBA 180440Z 1806/1912 33022G32KT 9999 -RA FEW012 BKN025 BKN070
BECMG 1813/1817 33012KT
BECMG 1900/1902 33015G25KT

Example: see airport list